createdAt,value
2019-05-06T11:23:04.704Z,10.10
2019-05-06T11:24:06.195Z,10.20
2019-05-06T11:25:05.437Z,10.20
2019-05-06T11:26:05.442Z,10.30
2019-05-06T11:27:05.473Z,10.40
2019-05-06T11:28:05.590Z,10.40
2019-05-06T11:31:38.681Z,10.50
2019-05-06T11:32:04.674Z,10.60
2019-05-06T11:33:04.924Z,10.60
2019-05-06T11:34:05.008Z,10.70
2019-05-06T11:35:05.039Z,10.70
2019-05-06T11:36:05.064Z,10.80
2019-05-06T11:37:07.699Z,11.00
2019-05-06T11:38:08.198Z,11.00
2019-05-06T11:39:07.692Z,11.10
2019-05-06T11:40:04.768Z,11.10
2019-05-06T11:41:07.266Z,11.20
2019-05-06T11:42:23.671Z,11.20
2019-05-06T11:43:07.597Z,11.20
2019-05-06T11:44:08.756Z,11.30
2019-05-06T11:45:07.723Z,11.30
2019-05-06T11:46:05.578Z,11.20
2019-05-06T11:47:08.198Z,11.20
2019-05-06T11:48:05.080Z,11.20
2019-05-06T11:49:05.183Z,11.20
2019-05-06T11:50:05.259Z,11.10
2019-05-06T11:51:07.835Z,11.00
2019-05-06T11:52:07.227Z,11.00
2019-05-06T11:53:07.592Z,11.00
2019-05-06T11:54:16.280Z,11.00
2019-05-06T11:55:09.828Z,11.00
2019-05-06T11:56:07.223Z,10.90
2019-05-06T11:57:12.239Z,10.90
2019-05-06T11:58:04.729Z,10.90
2019-05-06T11:59:04.763Z,10.90
2019-05-06T12:00:05.335Z,10.90
2019-05-06T12:01:05.453Z,10.80
2019-05-06T12:02:08.066Z,10.80
2019-05-06T12:03:07.471Z,10.80
2019-05-06T12:08:08.148Z,11.10
2019-05-06T12:09:06.294Z,11.20
2019-05-06T12:10:04.609Z,11.20
2019-05-06T12:11:07.240Z,11.30
2019-05-06T12:12:05.118Z,11.30
2019-05-06T12:13:05.105Z,11.40
2019-05-06T12:14:07.691Z,11.50
2019-05-06T12:15:07.142Z,11.50
2019-05-06T12:16:07.897Z,11.60
2019-05-06T12:17:07.330Z,11.60
2019-05-06T12:18:05.131Z,11.60
2019-05-06T12:19:07.756Z,11.60
2019-05-06T12:20:07.388Z,11.60
2019-05-06T12:21:11.084Z,11.60
2019-05-06T12:22:07.201Z,11.60
2019-05-06T12:23:05.109Z,11.60
2019-05-06T12:24:07.718Z,11.50
2019-05-06T12:25:05.554Z,11.50
2019-05-06T12:26:08.098Z,11.50
2019-05-06T12:27:15.134Z,11.50
2019-05-06T12:28:07.755Z,11.50
2019-05-06T12:29:04.624Z,11.50
2019-05-06T12:30:05.428Z,11.50
2019-05-06T12:31:04.626Z,11.50
2019-05-06T12:32:07.249Z,11.50
2019-05-06T12:33:07.748Z,11.50
2019-05-06T12:34:04.625Z,11.50
2019-05-06T12:35:07.169Z,11.50
2019-05-06T12:36:05.079Z,11.50
2019-05-06T12:37:05.291Z,11.60
2019-05-06T12:38:22.950Z,11.60
2019-05-06T12:39:06.464Z,11.60
2019-05-06T12:40:04.945Z,11.60
2019-05-06T12:41:04.983Z,11.70
2019-05-06T12:42:04.972Z,11.70
2019-05-06T12:43:04.986Z,11.70
2019-05-06T12:44:07.518Z,11.80
2019-05-06T12:45:05.420Z,11.70
2019-05-06T12:46:05.513Z,11.80
2019-05-06T12:47:05.543Z,11.90
2019-05-06T12:48:05.526Z,12.00
2019-05-06T12:49:05.579Z,12.10
2019-05-06T12:50:07.116Z,12.20
2019-05-06T12:51:07.484Z,12.30
2019-05-06T12:52:05.356Z,12.30
2019-05-06T12:53:05.498Z,12.30
2019-05-06T12:54:08.120Z,12.40
2019-05-06T12:55:16.680Z,12.40
2019-05-06T12:56:05.319Z,12.40
2019-05-06T12:57:07.981Z,12.50
2019-05-06T12:58:04.829Z,12.50
2019-05-06T12:59:04.827Z,12.60
2019-05-06T13:00:07.298Z,12.60
2019-05-06T13:01:07.630Z,12.60
2019-05-06T13:02:05.458Z,12.60
2019-05-06T13:03:05.434Z,12.60
2019-05-06T13:04:05.437Z,12.60
2019-05-06T13:05:05.501Z,12.50
2019-05-06T13:06:07.921Z,12.50
2019-05-06T13:07:05.121Z,12.40
2019-05-06T13:08:06.399Z,12.50
2019-05-06T13:09:05.262Z,12.40
2019-05-06T13:10:04.646Z,12.40
2019-05-06T13:11:04.635Z,12.40
2019-05-06T13:12:04.577Z,12.40
2019-05-06T13:13:07.267Z,12.40
2019-05-06T13:14:07.712Z,12.40
2019-05-06T13:15:07.638Z,12.50
2019-05-06T13:16:07.681Z,12.50
2019-05-06T13:17:08.089Z,12.50
2019-05-06T13:18:06.939Z,12.50
2019-05-06T13:19:08.082Z,12.60
2019-05-06T13:20:05.031Z,12.60
2019-05-06T13:21:06.570Z,12.60
2019-05-06T13:22:09.752Z,12.70
2019-05-06T13:23:08.455Z,12.80
2019-05-06T13:24:05.338Z,12.80
2019-05-06T13:25:05.353Z,12.90
2019-05-06T13:26:07.861Z,13.00
2019-05-06T13:27:04.709Z,13.00
2019-05-06T13:28:07.321Z,12.90
2019-05-06T13:29:05.162Z,13.00
2019-05-06T13:30:05.170Z,12.90
2019-05-06T13:31:15.575Z,12.80
2019-05-06T13:32:05.299Z,12.80
2019-05-06T13:33:05.421Z,12.70
2019-05-06T13:34:04.737Z,12.60
2019-05-06T13:35:05.042Z,12.50
2019-05-06T13:36:07.685Z,12.30
2019-05-06T13:37:08.121Z,12.30
2019-05-06T13:38:07.682Z,12.20
2019-05-06T13:39:13.611Z,12.20
2019-05-06T13:40:05.170Z,12.20
2019-05-06T13:41:05.310Z,12.20
2019-05-06T13:42:05.288Z,12.10
2019-05-06T13:43:05.533Z,12.10
2019-05-06T13:44:04.796Z,12.10
2019-05-06T13:45:04.992Z,12.10
2019-05-06T13:46:07.203Z,12.10
2019-05-06T13:47:05.491Z,12.00
2019-05-06T13:48:05.484Z,12.00
2019-05-06T13:49:13.044Z,11.90
2019-05-06T13:50:12.000Z,11.90
2019-05-06T13:51:08.127Z,11.90
2019-05-06T13:52:05.153Z,11.90
2019-05-06T13:53:10.975Z,11.90
2019-05-06T13:54:05.417Z,11.90
2019-05-06T13:55:05.396Z,11.90
2019-05-06T13:56:05.664Z,11.90
2019-05-06T13:57:04.766Z,11.90
2019-05-06T13:58:07.384Z,11.90
2019-05-06T13:59:05.417Z,11.90
2019-05-06T14:00:07.967Z,11.90
2019-05-06T14:01:04.898Z,11.90
2019-05-06T14:02:07.249Z,11.90
2019-05-06T14:03:07.951Z,11.90
2019-05-06T14:04:07.436Z,11.90
2019-05-06T14:05:07.837Z,11.90
2019-05-06T14:06:07.390Z,11.90
2019-05-06T14:07:07.334Z,12.00
2019-05-06T14:08:04.977Z,11.90
2019-05-06T14:09:07.745Z,12.00
2019-05-06T14:10:04.971Z,12.00
2019-05-06T14:11:05.066Z,12.00
2019-05-06T14:12:07.685Z,12.00
2019-05-06T14:13:12.846Z,12.00
2019-05-06T14:14:07.464Z,12.00
2019-05-06T14:15:04.719Z,12.00
2019-05-06T14:16:04.834Z,12.00
2019-05-06T14:17:04.909Z,12.00
2019-05-06T14:18:05.129Z,12.00
2019-05-06T14:19:05.161Z,12.00
2019-05-06T14:20:05.431Z,12.00
2019-05-06T14:21:04.910Z,12.00
2019-05-06T14:22:05.182Z,12.00
2019-05-06T14:23:07.838Z,11.90
2019-05-06T14:24:04.723Z,11.90
2019-05-06T14:25:07.535Z,11.80
2019-05-06T14:26:07.283Z,11.80
2019-05-06T14:27:07.827Z,11.80
2019-05-06T14:28:05.236Z,11.80
2019-05-06T14:29:05.622Z,11.80
2019-05-06T14:30:05.025Z,11.70
2019-05-06T14:31:05.334Z,11.70
2019-05-06T14:32:08.647Z,11.60
2019-05-06T14:33:04.857Z,11.60
2019-05-06T14:34:05.038Z,11.60
2019-05-06T14:35:05.317Z,11.60
2019-05-06T14:36:05.534Z,11.60
2019-05-06T14:37:10.027Z,11.50
2019-05-06T14:38:04.891Z,11.50
2019-05-06T14:39:05.103Z,11.50
2019-05-06T14:40:05.163Z,11.50
2019-05-06T14:41:07.868Z,11.50
2019-05-06T14:42:05.458Z,11.40
2019-05-06T14:43:05.164Z,11.40
2019-05-06T14:44:07.547Z,11.30
2019-05-06T14:45:07.890Z,11.30
2019-05-06T14:46:04.829Z,11.30
2019-05-06T14:47:07.330Z,11.20
2019-05-06T14:48:05.253Z,11.20
2019-05-06T14:49:05.293Z,11.30
2019-05-06T14:50:07.859Z,11.20
2019-05-06T14:51:07.382Z,11.30
2019-05-06T14:52:05.284Z,11.20
2019-05-06T14:53:05.366Z,11.20
2019-05-06T14:54:07.942Z,11.20
2019-05-06T14:55:04.872Z,11.20
2019-05-06T14:56:04.926Z,11.20
2019-05-06T14:57:05.389Z,11.20
2019-05-06T14:58:04.804Z,11.20
2019-05-06T14:59:07.382Z,11.20
2019-05-06T15:00:07.862Z,11.20
2019-05-06T15:01:04.853Z,11.10
2019-05-06T15:02:07.599Z,11.10
2019-05-06T15:03:08.144Z,11.10
2019-05-06T15:04:07.565Z,11.10
2019-05-06T15:05:05.454Z,11.10
2019-05-06T15:06:05.423Z,11.10
2019-05-06T15:07:08.049Z,11.10
2019-05-06T15:08:05.116Z,11.00
2019-05-06T15:09:05.259Z,11.00
2019-05-06T15:10:19.940Z,11.10
2019-05-06T15:11:05.038Z,11.10
2019-05-06T15:12:07.941Z,11.10
2019-05-06T15:13:05.351Z,11.10
2019-05-06T15:14:04.984Z,11.10
2019-05-06T15:15:05.477Z,11.20
2019-05-06T15:16:05.021Z,11.20
2019-05-06T15:17:05.484Z,11.10
2019-05-06T15:18:05.145Z,11.10
2019-05-06T15:19:05.568Z,11.10
2019-05-06T15:20:04.961Z,11.10
2019-05-06T15:21:29.902Z,11.10
2019-05-06T15:22:04.832Z,11.10
2019-05-06T15:23:14.278Z,11.10
2019-05-06T15:24:05.734Z,11.10
2019-05-06T15:25:07.850Z,11.10
2019-05-06T15:26:05.357Z,11.10
2019-05-06T15:27:11.957Z,11.00
2019-05-06T15:28:05.251Z,11.00
2019-05-06T15:29:12.434Z,11.00
2019-05-06T15:30:05.403Z,11.00
2019-05-06T15:31:05.168Z,11.00
2019-05-06T15:32:07.719Z,11.00
2019-05-06T15:33:05.414Z,11.00
2019-05-06T15:34:07.743Z,11.00
2019-05-06T15:35:05.334Z,11.00
2019-05-06T15:36:05.164Z,11.00
2019-05-06T15:37:05.059Z,11.00
2019-05-06T15:38:12.699Z,11.00
2019-05-06T15:39:05.487Z,11.00
2019-05-06T15:40:05.272Z,11.00
2019-05-06T15:41:05.240Z,11.00
2019-05-06T15:42:04.927Z,11.00
2019-05-06T15:43:05.820Z,11.00
2019-05-06T15:44:14.447Z,11.00
2019-05-06T15:45:05.125Z,11.00
2019-05-06T15:46:06.099Z,11.00
2019-05-06T15:47:12.945Z,11.00
2019-05-06T15:48:05.493Z,11.00
2019-05-06T15:49:05.216Z,11.10
2019-05-06T15:50:07.513Z,11.10
2019-05-06T15:51:07.681Z,11.10
2019-05-06T15:52:05.249Z,11.10
2019-05-06T15:53:08.414Z,11.10
2019-05-06T15:54:08.206Z,11.10
2019-05-06T15:55:07.797Z,11.10
2019-05-06T15:56:07.610Z,11.10
2019-05-06T15:57:05.212Z,11.10
2019-05-06T15:58:04.890Z,11.10
2019-05-06T15:59:05.321Z,11.10
2019-05-06T16:00:05.632Z,11.10
2019-05-06T16:01:05.389Z,11.10
2019-05-06T16:02:10.893Z,11.00
2019-05-06T16:03:07.793Z,11.00
2019-05-06T16:04:05.398Z,11.00
2019-05-06T16:05:06.525Z,10.90
2019-05-06T16:06:12.274Z,10.90
2019-05-06T16:07:05.581Z,10.90
2019-05-06T16:08:10.188Z,10.90
2019-05-06T16:09:05.787Z,10.90
2019-05-06T16:10:08.131Z,10.90
2019-05-06T16:11:05.626Z,10.90
2019-05-06T16:12:05.230Z,10.90
2019-05-06T16:13:10.129Z,10.90
2019-05-06T16:14:07.463Z,10.90
2019-05-06T16:15:10.133Z,10.90
2019-05-06T16:16:06.929Z,10.90
2019-05-06T16:17:05.895Z,10.90
2019-05-06T16:18:05.747Z,10.90
2019-05-06T16:19:05.792Z,10.90
2019-05-06T16:20:05.645Z,10.90
2019-05-06T16:21:07.902Z,11.00
2019-05-06T16:22:05.588Z,11.00
2019-05-06T16:23:14.261Z,10.90
2019-05-06T16:24:05.926Z,11.00
2019-05-06T16:25:06.003Z,10.90
2019-05-06T16:26:05.862Z,11.00
2019-05-06T16:27:07.852Z,10.90
2019-05-06T16:28:12.685Z,10.90
2019-05-06T16:29:05.440Z,10.90
2019-05-06T16:30:05.010Z,10.90
2019-05-06T16:31:05.793Z,10.90
2019-05-06T16:32:05.463Z,10.90
2019-05-06T16:33:05.243Z,10.90
2019-05-06T16:34:05.064Z,10.90
2019-05-06T16:35:05.946Z,10.90
2019-05-06T16:36:05.848Z,10.90
2019-05-06T16:37:05.731Z,10.90
2019-05-06T16:38:12.972Z,10.80
2019-05-06T16:39:07.119Z,10.90
2019-05-06T16:40:06.126Z,10.80
2019-05-06T16:41:12.221Z,10.80
2019-05-06T16:42:12.835Z,10.80
2019-05-06T16:43:09.156Z,10.80
2019-05-06T16:44:06.020Z,10.80
2019-05-06T16:45:12.531Z,10.80
2019-05-06T16:46:05.843Z,10.80
2019-05-06T16:47:11.883Z,10.80
2019-05-06T16:48:07.607Z,10.80
2019-05-06T16:49:05.321Z,10.80
2019-05-06T16:50:12.493Z,10.80
2019-05-06T16:51:05.530Z,10.80
2019-05-06T16:52:05.284Z,10.80
2019-05-06T16:53:05.103Z,10.80
2019-05-06T16:54:05.836Z,10.80
2019-05-06T16:55:05.730Z,10.70
2019-05-06T16:56:05.514Z,10.70
2019-05-06T16:57:05.147Z,10.70
2019-05-06T16:58:11.202Z,10.70
2019-05-06T16:59:09.697Z,10.70
2019-05-06T17:05:08.598Z,10.60
2019-05-06T17:06:05.366Z,10.60
2019-05-06T17:07:05.348Z,10.60
2019-05-06T17:08:05.484Z,10.60
2019-05-06T17:09:17.195Z,10.60
2019-05-06T17:10:06.041Z,10.60
2019-05-06T17:11:26.794Z,10.60
2019-05-06T17:12:12.655Z,10.50
2019-05-06T17:13:08.373Z,10.50
2019-05-06T17:14:05.067Z,10.50
2019-05-06T17:15:06.037Z,10.50
2019-05-06T17:16:05.852Z,10.50
2019-05-06T17:17:05.694Z,10.50
2019-05-06T17:18:15.689Z,10.40
2019-05-06T17:19:05.484Z,10.40
2019-05-06T17:20:06.152Z,10.40
2019-05-06T17:21:06.794Z,10.40
2019-05-06T17:22:08.228Z,10.30
2019-05-06T17:23:06.088Z,10.30
2019-05-06T17:24:06.147Z,10.30
2019-05-06T17:25:06.820Z,10.30
2019-05-06T17:26:05.618Z,10.30
2019-05-06T17:27:05.471Z,10.20
2019-05-06T17:28:08.040Z,10.20
2019-05-06T17:29:06.051Z,10.20
2019-05-06T17:30:12.326Z,10.20
2019-05-06T17:31:05.713Z,10.20
2019-05-06T17:32:05.568Z,10.10
2019-05-06T17:33:05.378Z,10.10
2019-05-06T17:34:07.724Z,10.10
2019-05-06T17:35:05.492Z,10.10
2019-05-06T17:36:05.294Z,10.10
2019-05-06T17:37:05.117Z,10.10
2019-05-06T17:38:06.024Z,10.10
2019-05-06T17:39:15.584Z,10.00
2019-05-06T17:40:13.271Z,10.00
2019-05-06T17:41:08.479Z,10.00
2019-05-06T17:42:05.329Z,10.00
2019-05-06T17:43:05.253Z,10.00
2019-05-06T17:44:11.998Z,10.00
2019-05-06T17:45:05.410Z,10.00
2019-05-06T17:46:12.487Z,10.00
2019-05-06T17:47:05.345Z,10.00
2019-05-06T17:48:05.119Z,10.00
2019-05-06T17:49:05.950Z,10.00
2019-05-06T17:50:05.913Z,10.00
2019-05-06T17:51:05.703Z,10.10
2019-05-06T17:52:10.535Z,10.00
2019-05-06T17:53:11.751Z,10.00
2019-05-06T17:54:08.106Z,10.00
2019-05-06T17:55:05.347Z,10.00
2019-05-06T17:56:07.646Z,10.00
2019-05-06T17:57:12.223Z,9.90
2019-05-06T17:58:05.585Z,10.00
2019-05-06T17:59:05.542Z,9.90
2019-05-06T18:00:06.068Z,9.90
2019-05-06T18:01:06.064Z,9.90
2019-05-06T18:02:05.975Z,9.90
2019-05-06T18:03:05.788Z,9.90
2019-05-06T18:04:08.317Z,9.80
2019-05-06T18:05:14.236Z,9.80
2019-05-06T18:06:13.260Z,9.80
2019-05-06T18:07:05.992Z,9.80
2019-05-06T18:08:05.683Z,9.80
2019-05-06T18:09:05.510Z,9.80
2019-05-06T18:10:05.487Z,9.70
2019-05-06T18:11:05.798Z,9.70
2019-05-06T18:12:05.645Z,9.70
2019-05-06T18:13:07.310Z,9.70
2019-05-06T18:14:07.804Z,9.70
2019-05-06T18:15:05.614Z,9.60
2019-05-06T18:16:05.436Z,9.60
2019-05-06T18:17:05.788Z,9.60
2019-05-06T18:18:05.691Z,9.60
2019-05-06T18:19:05.481Z,9.50
2019-05-06T18:20:05.327Z,9.50
2019-05-06T18:21:07.835Z,9.50
2019-05-06T18:22:08.100Z,9.40
2019-05-06T18:23:12.874Z,9.40
2019-05-06T18:24:12.860Z,9.40
2019-05-06T18:25:12.619Z,9.30
2019-05-06T18:26:08.315Z,9.20
2019-05-06T18:27:05.072Z,9.20
2019-05-06T18:28:05.846Z,9.20
2019-05-06T18:29:08.297Z,9.10
2019-05-06T18:30:15.743Z,9.10
2019-05-06T18:31:16.157Z,9.00
2019-05-06T18:32:05.931Z,9.00
2019-05-06T18:33:06.258Z,8.90
2019-05-06T18:34:06.497Z,9.00
2019-05-06T18:35:05.422Z,8.90
2019-05-06T18:36:06.355Z,8.80
2019-05-06T18:37:05.373Z,8.80
2019-05-06T18:38:05.381Z,8.80
2019-05-06T18:39:14.592Z,8.70
2019-05-06T18:40:12.048Z,8.70
2019-05-06T18:41:05.197Z,8.70
2019-05-06T18:42:16.592Z,8.70
2019-05-06T18:43:05.687Z,8.70
2019-05-06T18:44:05.497Z,8.60
2019-05-06T18:45:05.496Z,8.60
2019-05-06T18:46:05.595Z,8.50
2019-05-06T18:47:05.333Z,8.50
2019-05-06T18:48:05.671Z,8.50
2019-05-06T18:49:05.454Z,8.50
2019-05-06T18:50:05.453Z,8.40
2019-05-06T18:51:05.324Z,8.40
2019-05-06T18:52:05.428Z,8.40
2019-05-06T18:53:05.558Z,8.40
2019-05-06T18:54:05.399Z,8.40
2019-05-06T18:55:05.713Z,8.40
2019-05-06T18:56:06.060Z,8.40
2019-05-06T18:57:06.406Z,8.40
2019-05-06T18:58:12.823Z,8.40
2019-05-06T18:59:05.717Z,8.40
2019-05-06T19:00:05.962Z,8.40
2019-05-06T19:01:08.877Z,8.40
2019-05-06T19:02:05.535Z,8.40
2019-05-06T19:03:09.544Z,8.40
2019-05-06T19:04:06.183Z,8.40
2019-05-06T19:05:05.562Z,8.40
2019-05-06T19:06:05.409Z,8.40
2019-05-06T19:07:12.478Z,8.40
2019-05-06T19:08:14.685Z,8.40
2019-05-06T19:09:05.470Z,8.40
2019-05-06T19:10:05.785Z,8.40
2019-05-06T19:11:05.642Z,8.40
2019-05-06T19:12:05.851Z,8.40
2019-05-06T19:13:05.102Z,8.30
2019-05-06T19:14:08.420Z,8.20
2019-05-06T19:15:12.408Z,8.20
2019-05-06T19:16:05.814Z,8.30
2019-05-06T19:17:05.293Z,8.00
2019-05-06T19:18:05.046Z,8.20
2019-05-06T19:19:06.164Z,8.20
2019-05-06T19:20:05.381Z,8.20
2019-05-06T19:21:08.257Z,8.10
2019-05-06T19:22:13.565Z,8.10
2019-05-06T19:23:12.842Z,8.20
2019-05-06T19:24:05.750Z,8.20
2019-05-06T19:25:05.678Z,8.10
2019-05-06T19:26:05.588Z,8.10
2019-05-06T19:27:08.119Z,8.10
2019-05-06T19:28:08.425Z,8.10
2019-05-06T19:29:05.253Z,8.10
2019-05-06T19:30:05.056Z,8.10
2019-05-06T19:31:05.322Z,8.10
2019-05-06T19:32:05.165Z,8.10
2019-05-06T19:33:08.242Z,8.10
2019-05-06T19:34:07.656Z,8.10
2019-05-06T19:35:12.948Z,8.00
2019-05-06T19:36:05.564Z,8.00
2019-05-06T19:37:05.394Z,8.00
2019-05-06T19:38:07.773Z,7.90
2019-05-06T19:39:12.590Z,7.90
2019-05-06T19:40:05.699Z,7.90
2019-05-06T19:41:05.879Z,7.90
2019-05-06T19:42:05.852Z,7.90
2019-05-06T19:43:08.171Z,7.90
2019-05-06T19:44:05.913Z,7.90
2019-05-06T19:45:05.796Z,7.90
2019-05-06T19:46:05.594Z,7.90
2019-05-06T19:47:05.414Z,7.80
2019-05-06T19:48:05.240Z,7.80
2019-05-06T19:49:05.209Z,7.80
2019-05-06T19:50:07.544Z,7.80
2019-05-06T19:51:05.221Z,7.80
2019-05-06T19:52:04.978Z,7.80
2019-05-06T19:53:05.768Z,7.70
2019-05-06T19:54:08.134Z,7.70
2019-05-06T19:55:05.802Z,7.70
2019-05-06T19:56:05.616Z,7.70
2019-05-06T19:57:05.877Z,7.70
2019-05-06T19:58:05.005Z,7.70
2019-05-06T19:59:05.909Z,7.70
2019-05-06T20:00:10.797Z,7.70
2019-05-06T20:01:05.612Z,7.70
2019-05-06T20:02:12.623Z,7.70
2019-05-06T20:03:05.825Z,7.70
2019-05-06T20:04:05.802Z,7.60
2019-05-06T20:05:05.586Z,7.60
2019-05-06T20:06:05.081Z,7.60
2019-05-06T20:07:05.839Z,7.60
2019-05-06T20:08:05.577Z,7.60
2019-05-06T20:09:08.059Z,7.60
2019-05-06T20:10:05.780Z,7.60
2019-05-06T20:11:05.605Z,7.60
2019-05-06T20:12:05.376Z,7.50
2019-05-06T20:13:05.580Z,7.50
2019-05-06T20:14:05.444Z,7.50
2019-05-06T20:15:05.591Z,7.60
2019-05-06T20:16:07.959Z,7.50
2019-05-06T20:17:05.640Z,7.50
2019-05-06T20:18:05.405Z,7.50
2019-05-06T20:19:10.228Z,7.50
2019-05-06T20:20:05.134Z,7.50
2019-05-06T20:21:10.951Z,7.50
2019-05-06T20:22:05.865Z,7.50
2019-05-06T20:23:05.600Z,7.50
2019-05-06T20:24:05.520Z,7.50
2019-05-06T20:25:05.295Z,7.50
2019-05-06T20:26:05.647Z,7.50
2019-05-06T20:27:05.414Z,7.50
2019-05-06T20:28:05.311Z,7.50
2019-05-06T20:29:05.201Z,7.50
2019-05-06T20:30:08.492Z,7.40
2019-05-06T20:31:05.106Z,7.40
2019-05-06T20:32:05.814Z,7.40
2019-05-06T20:33:08.343Z,7.40
2019-05-06T20:34:05.108Z,7.40
2019-05-06T20:35:06.409Z,7.40
2019-05-06T20:36:05.251Z,7.40
2019-05-06T20:37:05.035Z,7.30
2019-05-06T20:38:05.768Z,7.30
2019-05-06T20:39:05.560Z,7.30
2019-05-06T20:40:05.337Z,7.30
2019-05-06T20:41:12.381Z,7.30
2019-05-06T20:42:08.199Z,7.30
2019-05-06T20:43:16.021Z,7.30
2019-05-06T20:44:08.034Z,7.30
2019-05-06T20:45:05.703Z,7.30
2019-05-06T20:46:05.380Z,7.20
2019-05-06T20:47:05.123Z,7.20
2019-05-06T20:48:05.805Z,7.20
2019-05-06T20:49:05.406Z,7.20
2019-05-06T20:50:05.032Z,7.20
2019-05-06T20:51:05.823Z,7.20
2019-05-06T20:52:05.739Z,7.20
2019-05-06T20:53:05.474Z,7.20
2019-05-06T20:54:05.226Z,7.20
2019-05-06T20:55:12.369Z,7.20
2019-05-06T20:56:05.157Z,7.20
2019-05-06T20:57:05.864Z,7.20
2019-05-06T20:58:05.454Z,7.20
2019-05-06T20:59:05.031Z,7.20
2019-05-06T21:00:07.272Z,7.20
2019-05-06T21:01:04.939Z,7.20
2019-05-06T21:02:08.309Z,7.20
2019-05-06T21:03:05.922Z,7.20
2019-05-06T21:04:05.684Z,7.10
2019-05-06T21:05:05.316Z,7.20
2019-05-06T21:06:05.251Z,7.10
2019-05-06T21:07:05.067Z,7.10
2019-05-06T21:08:05.858Z,7.10
2019-05-06T21:09:12.429Z,7.10
2019-05-06T21:10:05.723Z,7.10
2019-05-06T21:11:05.426Z,7.10
2019-05-06T21:12:05.223Z,7.10
2019-05-06T21:13:05.023Z,7.10
2019-05-06T21:14:05.818Z,7.10
2019-05-06T21:15:05.341Z,7.10
2019-05-06T21:16:08.293Z,7.10
2019-05-06T21:17:05.586Z,7.10
2019-05-06T21:18:04.900Z,7.10
2019-05-06T21:19:12.383Z,7.10
2019-05-06T21:20:05.488Z,7.10
2019-05-06T21:21:05.404Z,7.10
2019-05-06T21:22:12.991Z,7.10
2019-05-06T21:23:05.522Z,7.10
2019-05-06T21:24:10.017Z,7.00
2019-05-06T21:25:05.111Z,7.00
2019-05-06T21:26:08.044Z,7.00
2019-05-06T21:27:07.825Z,7.00
2019-05-06T21:28:04.941Z,7.00
2019-05-06T21:29:05.136Z,7.00
2019-05-06T21:30:07.909Z,6.90
2019-05-06T21:31:05.141Z,6.90
2019-05-06T21:32:07.833Z,6.80
2019-05-06T21:33:04.807Z,6.80
2019-05-06T21:34:07.571Z,6.80
2019-05-06T21:35:08.043Z,6.70
2019-05-06T21:36:07.604Z,6.70
2019-05-06T21:37:04.740Z,6.70
2019-05-06T21:38:07.363Z,6.70
2019-05-06T21:39:05.480Z,6.70
2019-05-06T21:40:07.302Z,6.60
2019-05-06T21:41:07.751Z,6.50
2019-05-06T21:42:04.691Z,6.60
2019-05-06T21:43:07.356Z,6.50
2019-05-06T21:44:05.385Z,6.50
2019-05-06T21:45:05.490Z,6.50
2019-05-06T21:46:05.611Z,6.50
2019-05-06T21:47:04.786Z,6.40
2019-05-06T21:48:05.159Z,6.40
2019-05-06T21:49:07.876Z,6.30
2019-05-06T21:50:11.811Z,6.30
2019-05-06T21:51:05.012Z,6.30
2019-05-06T21:52:07.713Z,6.30
2019-05-06T21:53:04.665Z,6.20
2019-05-06T21:54:05.033Z,6.20
2019-05-06T21:55:07.787Z,6.20
2019-05-06T21:56:04.794Z,6.10
2019-05-06T21:57:04.871Z,6.20
2019-05-06T21:58:05.042Z,6.10
2019-05-06T21:59:05.134Z,6.10
2019-05-06T22:00:08.053Z,6.00
2019-05-06T22:01:07.486Z,6.00
2019-05-06T22:02:11.967Z,6.00
2019-05-06T22:03:07.604Z,5.90
2019-05-06T22:04:14.501Z,6.00
2019-05-06T22:05:05.441Z,5.90
2019-05-06T22:06:05.577Z,5.90
2019-05-06T22:07:04.732Z,5.90
2019-05-06T22:08:04.757Z,5.90
2019-05-06T22:09:04.907Z,5.80
2019-05-06T22:10:07.594Z,5.80
2019-05-06T22:11:08.013Z,5.80
2019-05-06T22:12:09.975Z,5.70
2019-05-06T22:13:05.056Z,5.80
2019-05-06T22:14:05.194Z,5.70
2019-05-06T22:15:05.276Z,5.70
2019-05-06T22:16:05.401Z,5.70
2019-05-06T22:17:05.568Z,5.70
2019-05-06T22:18:07.321Z,5.60
2019-05-06T22:19:12.048Z,5.60
2019-05-06T22:20:05.170Z,5.60
2019-05-06T22:21:07.768Z,5.60
2019-05-06T22:22:07.310Z,5.60
2019-05-06T22:23:07.772Z,5.50
2019-05-06T22:24:11.938Z,5.50
2019-05-06T22:25:07.583Z,5.50
2019-05-06T22:26:11.347Z,5.50
2019-05-06T22:27:05.251Z,5.50
2019-05-06T22:28:07.910Z,5.40
2019-05-06T22:29:04.911Z,5.40
2019-05-06T22:30:05.107Z,5.40
2019-05-06T22:31:05.233Z,5.40
2019-05-06T22:32:07.940Z,5.40
2019-05-06T22:33:04.943Z,5.30
2019-05-06T22:34:05.094Z,5.30
2019-05-06T22:35:07.710Z,5.30
2019-05-06T22:36:09.815Z,5.30
2019-05-06T22:37:07.417Z,5.30
2019-05-06T22:38:05.476Z,5.30
2019-05-06T22:39:05.657Z,5.30
2019-05-06T22:40:04.751Z,5.30
2019-05-06T22:41:12.540Z,5.20
2019-05-06T22:42:04.991Z,5.20
2019-05-06T22:43:05.051Z,5.20
2019-05-06T22:44:12.893Z,5.20
2019-05-06T22:45:04.922Z,5.10
2019-05-06T22:46:07.560Z,5.10
2019-05-06T22:47:08.065Z,5.10
2019-05-06T22:48:05.083Z,5.10
2019-05-06T22:49:05.206Z,5.10
2019-05-06T22:50:07.956Z,5.00
2019-05-06T22:51:04.913Z,5.00
2019-05-06T22:52:12.329Z,4.90
2019-05-06T22:53:10.321Z,4.90
2019-05-06T22:54:05.095Z,4.90
2019-05-06T22:55:05.276Z,4.90
2019-05-06T22:56:05.540Z,4.90
2019-05-06T22:57:08.129Z,4.80
2019-05-06T22:58:05.031Z,4.70
2019-05-06T22:59:05.349Z,4.70
2019-05-06T23:00:08.043Z,4.70
2019-05-06T23:01:07.489Z,4.60
2019-05-06T23:02:10.478Z,4.60
2019-05-06T23:03:05.033Z,4.60
2019-05-06T23:04:05.210Z,4.60
2019-05-06T23:05:08.077Z,4.60
2019-05-06T23:06:05.069Z,4.60
2019-05-06T23:07:07.638Z,4.50
2019-05-06T23:08:12.256Z,4.50
2019-05-06T23:09:07.910Z,4.50
2019-05-06T23:10:04.869Z,4.50
2019-05-06T23:11:04.895Z,4.50
2019-05-06T23:12:04.974Z,4.50
2019-05-06T23:13:05.294Z,4.50
2019-05-06T23:14:05.411Z,4.50
2019-05-06T23:15:05.491Z,4.40
2019-05-06T23:16:05.580Z,4.50
2019-05-06T23:17:07.323Z,4.40
2019-05-06T23:18:10.416Z,4.40
2019-05-06T23:19:08.014Z,4.40
2019-05-06T23:20:04.943Z,4.40
2019-05-06T23:21:05.304Z,4.40
2019-05-06T23:22:07.249Z,4.40
2019-05-06T23:23:07.879Z,4.30
2019-05-06T23:24:04.828Z,4.30
2019-05-06T23:25:07.571Z,4.30
2019-05-06T23:26:05.543Z,4.30
2019-05-06T23:27:05.774Z,4.30
2019-05-06T23:28:07.404Z,4.30
2019-05-06T23:29:05.333Z,4.30
2019-05-06T23:30:05.513Z,4.30
2019-05-06T23:31:05.650Z,4.30
2019-05-06T23:32:04.834Z,4.30
2019-05-06T23:33:07.517Z,4.30
2019-05-06T23:34:05.424Z,4.30
2019-05-06T23:35:05.520Z,4.30
2019-05-06T23:36:08.107Z,4.20
2019-05-06T23:37:05.006Z,4.20
2019-05-06T23:38:05.081Z,4.20
2019-05-06T23:39:05.146Z,4.20
2019-05-06T23:40:05.276Z,4.20
2019-05-06T23:41:05.369Z,4.20
2019-05-06T23:42:05.464Z,4.20
2019-05-06T23:43:05.528Z,4.10
2019-05-06T23:44:05.623Z,4.10
2019-05-06T23:45:07.320Z,4.10
2019-05-06T23:46:05.275Z,4.10
2019-05-06T23:47:05.491Z,4.00
2019-05-06T23:48:08.178Z,4.00
2019-05-06T23:49:07.763Z,4.00
2019-05-06T23:50:04.718Z,4.00
2019-05-06T23:51:05.049Z,4.00
2019-05-06T23:52:05.256Z,4.00
2019-05-06T23:53:05.403Z,4.00
2019-05-06T23:54:05.497Z,4.00
2019-05-06T23:55:05.571Z,3.90
2019-05-06T23:56:04.737Z,3.90
2019-05-06T23:57:04.829Z,3.90
2019-05-06T23:58:10.043Z,3.90
2019-05-06T23:59:04.964Z,3.80
